Airport ID:CYTF
Update Time (UTC):16/01/2022 09:33
Wind Speed (Knots):5
Wind Direction (Magnetic):200
Temperature (°C):-26.6
Dew Point (°C):-32.9
Humidity (%):56
Altimeter (inHg):30.31
Density Altitude (Feet):\\\\
Visibility (Miles):6
Clouds (Hundreds of feet):NCD
Present Weather:
METAR:METAR CYTF 160930Z AUTO 19006KT 10SM NCD M26/M33 A3031

The data displayed is for advisory purposes only and is not to be used for flight planning or operations.

This page is not automatically refreshed. Reload the page to see current data.